AMQ136 EPWR-LGRP
Flight info
| Callsign | AMQ136 |
|---|---|
| Flight time | 2h 37m |
| Altitude | 35000 |
| Route | MOFKE DCT IBEKA DCT BABKO DCT PITOK DCT BUDOP DCT LELTI DCT NIKTI DCT MES UN139 LURUS UL995 CODIC |
| Aircraft | A320/M-SDE3FGHIRWY/LB1 |
Departure
| Time | 2026-05-07 20:58 |
|---|---|
| Airport | Copernicus Wrocław Airport (EPWR) |
Arrival
| Time | 2026-05-07 23:35 |
|---|---|
| Airport | Rhodes International Airport "Diagoras" (LGRP) |
| Time | Latitude | Longitude | Altitude | Speed | Heading |
|---|---|---|---|---|---|
| 2026-05-07 20:23 | 51.10893 | 16.87926 | 408 ft | 0 kts | 25° |
| 2026-05-07 20:47 | 51.10886 | 16.87921 | 408 ft | 2 kts | 25° |
| 2026-05-07 20:47 | 51.10869 | 16.87907 | 404 ft | 3 kts | 31° |
| 2026-05-07 20:47 | 51.10852 | 16.87890 | 404 ft | 3 kts | 41° |
| 2026-05-07 20:48 | 51.10839 | 16.87867 | 404 ft | 3 kts | 67° |
| 2026-05-07 20:48 | 51.10836 | 16.87845 | 408 ft | 2 kts | 113° |
| 2026-05-07 20:48 | 51.10837 | 16.87841 | 408 ft | 0 kts | 116° |
| 2026-05-07 20:52 | 51.10836 | 16.87841 | 408 ft | 1 kts | 116° |
| 2026-05-07 20:52 | 51.10822 | 16.87884 | 405 ft | 7 kts | 117° |
| 2026-05-07 20:53 | 51.10776 | 16.88036 | 406 ft | 18 kts | 116° |
| 2026-05-07 20:53 | 51.10721 | 16.88217 | 405 ft | 19 kts | 115° |
| 2026-05-07 20:53 | 51.10697 | 16.88295 | 407 ft | 6 kts | 117° |
| 2026-05-07 20:53 | 51.10657 | 16.88425 | 407 ft | 15 kts | 116° |
| 2026-05-07 20:54 | 51.10619 | 16.88552 | 406 ft | 12 kts | 116° |
| 2026-05-07 20:54 | 51.10568 | 16.88716 | 406 ft | 19 kts | 116° |
| 2026-05-07 20:54 | 51.10509 | 16.88910 | 407 ft | 20 kts | 116° |
| 2026-05-07 20:54 | 51.10447 | 16.89115 | 403 ft | 21 kts | 116° |
| 2026-05-07 20:55 | 51.10382 | 16.89326 | 406 ft | 22 kts | 115° |
| 2026-05-07 20:55 | 51.10314 | 16.89549 | 406 ft | 23 kts | 116° |
| 2026-05-07 20:55 | 51.10244 | 16.89778 | 404 ft | 23 kts | 116° |
| 2026-05-07 20:55 | 51.10172 | 16.89958 | 406 ft | 17 kts | 154° |
| 2026-05-07 20:56 | 51.10075 | 16.89913 | 406 ft | 14 kts | 206° |
| 2026-05-07 20:56 | 51.09995 | 16.89853 | 406 ft | 12 kts | 205° |
| 2026-05-07 20:56 | 51.09928 | 16.89793 | 405 ft | 11 kts | 223° |
| 2026-05-07 20:56 | 51.09918 | 16.89728 | 406 ft | 8 kts | 283° |
| 2026-05-07 20:57 | 51.09939 | 16.89658 | 406 ft | 8 kts | 296° |
| 2026-05-07 20:57 | 51.10030 | 16.89364 | 408 ft | 64 kts | 296° |
| 2026-05-07 20:57 | 51.10326 | 16.88394 | 406 ft | 127 kts | 295° |
| 2026-05-07 20:57 | 51.10796 | 16.86923 | 593 ft | 158 kts | 300° |
| 2026-05-07 20:58 | 51.11282 | 16.85368 | 1232 ft | 157 kts | 299° |
| 2026-05-07 20:58 | 51.11757 | 16.83799 | 1902 ft | 158 kts | 298° |
| 2026-05-07 20:58 | 51.12237 | 16.82211 | 2425 ft | 164 kts | 299° |
| 2026-05-07 20:58 | 51.12767 | 16.80463 | 2652 ft | 186 kts | 297° |
| 2026-05-07 20:59 | 51.13362 | 16.78495 | 2874 ft | 209 kts | 296° |
| 2026-05-07 20:59 | 51.14031 | 16.76285 | 3125 ft | 234 kts | 296° |
| 2026-05-07 20:59 | 51.14767 | 16.73842 | 3569 ft | 252 kts | 295° |
| 2026-05-07 20:59 | 51.15534 | 16.71294 | 4371 ft | 257 kts | 295° |
| 2026-05-07 21:00 | 51.16315 | 16.68712 | 5190 ft | 260 kts | 294° |
| 2026-05-07 21:00 | 51.17107 | 16.66104 | 6003 ft | 264 kts | 294° |
| 2026-05-07 21:00 | 51.17913 | 16.63452 | 6787 ft | 267 kts | 295° |
| 2026-05-07 21:00 | 51.18964 | 16.60989 | 7518 ft | 274 kts | 314° |
| 2026-05-07 21:01 | 51.20561 | 16.59298 | 8253 ft | 282 kts | 336° |
| 2026-05-07 21:01 | 51.22507 | 16.58720 | 8984 ft | 290 kts | 0° |
| 2026-05-07 21:01 | 51.24484 | 16.59454 | 9708 ft | 297 kts | 25° |
| 2026-05-07 21:01 | 51.26316 | 16.61023 | 10406 ft | 301 kts | 28° |
| 2026-05-07 21:02 | 51.28158 | 16.62648 | 11095 ft | 304 kts | 28° |
| 2026-05-07 21:02 | 51.29998 | 16.64277 | 11779 ft | 308 kts | 28° |
| 2026-05-07 21:02 | 51.31902 | 16.65956 | 12480 ft | 311 kts | 28° |
| 2026-05-07 21:02 | 51.33710 | 16.67802 | 13149 ft | 314 kts | 43° |
| 2026-05-07 21:03 | 51.35014 | 16.70598 | 13802 ft | 316 kts | 68° |
| 2026-05-07 21:03 | 51.35530 | 16.74022 | 14197 ft | 325 kts | 91° |
| 2026-05-07 21:03 | 51.35098 | 16.77620 | 14333 ft | 339 kts | 116° |
| 2026-05-07 21:03 | 51.34053 | 16.81102 | 14446 ft | 357 kts | 118° |
| 2026-05-07 21:04 | 51.32919 | 16.84758 | 14601 ft | 375 kts | 118° |
| 2026-05-07 21:04 | 51.31748 | 16.88530 | 15038 ft | 382 kts | 118° |
| 2026-05-07 21:04 | 51.30566 | 16.92353 | 15593 ft | 386 kts | 118° |
| 2026-05-07 21:04 | 51.29378 | 16.96214 | 16156 ft | 389 kts | 118° |
| 2026-05-07 21:05 | 51.28181 | 17.00115 | 16731 ft | 392 kts | 118° |
| 2026-05-07 21:05 | 51.26967 | 17.04047 | 17287 ft | 396 kts | 121° |
| 2026-05-07 21:05 | 51.25482 | 17.07747 | 17847 ft | 396 kts | 130° |
| 2026-05-07 21:05 | 51.23617 | 17.10995 | 18393 ft | 397 kts | 140° |
| 2026-05-07 21:06 | 51.21551 | 17.13919 | 18904 ft | 399 kts | 141° |
| 2026-05-07 21:06 | 51.19468 | 17.16865 | 19432 ft | 401 kts | 141° |
| 2026-05-07 21:06 | 51.17381 | 17.19824 | 19951 ft | 402 kts | 141° |
| 2026-05-07 21:06 | 51.15294 | 17.22790 | 20461 ft | 404 kts | 141° |
| 2026-05-07 21:07 | 51.13199 | 17.25773 | 20974 ft | 405 kts | 141° |
| 2026-05-07 21:07 | 51.11082 | 17.28778 | 21464 ft | 407 kts | 141° |
| 2026-05-07 21:07 | 51.08993 | 17.31735 | 21916 ft | 408 kts | 142° |
| 2026-05-07 21:07 | 51.06871 | 17.34734 | 22382 ft | 409 kts | 142° |
| 2026-05-07 21:08 | 51.04738 | 17.37748 | 22831 ft | 411 kts | 142° |
| 2026-05-07 21:08 | 51.02588 | 17.40780 | 23268 ft | 413 kts | 142° |
| 2026-05-07 21:08 | 51.00435 | 17.43808 | 23683 ft | 415 kts | 142° |
| 2026-05-07 21:08 | 50.98266 | 17.46860 | 24027 ft | 417 kts | 142° |
| 2026-05-07 21:09 | 50.96097 | 17.49907 | 24404 ft | 418 kts | 143° |
| 2026-05-07 21:09 | 50.93910 | 17.52971 | 24764 ft | 419 kts | 143° |
| 2026-05-07 21:09 | 50.91723 | 17.56032 | 25118 ft | 420 kts | 143° |
| 2026-05-07 21:09 | 50.89529 | 17.59104 | 25450 ft | 421 kts | 143° |
| 2026-05-07 21:10 | 50.87332 | 17.62179 | 25792 ft | 423 kts | 143° |
| 2026-05-07 21:10 | 50.85116 | 17.65273 | 26097 ft | 423 kts | 143° |
| 2026-05-07 21:10 | 50.82912 | 17.68345 | 26475 ft | 423 kts | 143° |
| 2026-05-07 21:10 | 50.80703 | 17.71417 | 26795 ft | 424 kts | 143° |
| 2026-05-07 21:11 | 50.78511 | 17.74457 | 27087 ft | 425 kts | 143° |
| 2026-05-07 21:11 | 50.76260 | 17.77576 | 27377 ft | 426 kts | 143° |
| 2026-05-07 21:11 | 50.71822 | 17.83710 | 27911 ft | 428 kts | 143° |
| 2026-05-07 21:12 | 50.69570 | 17.86816 | 28174 ft | 429 kts | 143° |
| 2026-05-07 21:12 | 50.67315 | 17.89924 | 28413 ft | 430 kts | 143° |
| 2026-05-07 21:12 | 50.65066 | 17.93022 | 28724 ft | 429 kts | 143° |
| 2026-05-07 21:12 | 50.62822 | 17.96113 | 29060 ft | 428 kts | 143° |
| 2026-05-07 21:13 | 50.60578 | 17.99202 | 29345 ft | 427 kts | 143° |
| 2026-05-07 21:13 | 50.58373 | 18.02330 | 29646 ft | 429 kts | 140° |
| 2026-05-07 21:13 | 50.56318 | 18.05754 | 29973 ft | 430 kts | 138° |
| 2026-05-07 21:13 | 50.54274 | 18.09192 | 30280 ft | 429 kts | 138° |
| 2026-05-07 21:14 | 50.52240 | 18.12613 | 30547 ft | 428 kts | 138° |
| 2026-05-07 21:14 | 50.50212 | 18.16021 | 30816 ft | 427 kts | 138° |
| 2026-05-07 21:14 | 50.48182 | 18.19423 | 31084 ft | 426 kts | 138° |
| 2026-05-07 21:14 | 50.46151 | 18.22820 | 31350 ft | 426 kts | 138° |
| 2026-05-07 21:15 | 50.44131 | 18.26191 | 31604 ft | 425 kts | 139° |
| 2026-05-07 21:15 | 50.42095 | 18.29572 | 31883 ft | 424 kts | 139° |
| 2026-05-07 21:15 | 50.40065 | 18.32937 | 32151 ft | 424 kts | 139° |
| 2026-05-07 21:15 | 50.38042 | 18.36290 | 32421 ft | 423 kts | 139° |
| 2026-05-07 21:16 | 50.36019 | 18.39642 | 32678 ft | 423 kts | 139° |
| 2026-05-07 21:16 | 50.34001 | 18.42979 | 32926 ft | 422 kts | 139° |
| 2026-05-07 21:16 | 50.31983 | 18.46312 | 33155 ft | 423 kts | 138° |
| 2026-05-07 21:16 | 50.29975 | 18.49629 | 33336 ft | 424 kts | 138° |
| 2026-05-07 21:17 | 50.27946 | 18.52982 | 33553 ft | 425 kts | 138° |
| 2026-05-07 21:17 | 50.25889 | 18.56372 | 33788 ft | 425 kts | 138° |
| 2026-05-07 21:17 | 50.23882 | 18.59679 | 34036 ft | 424 kts | 138° |
| 2026-05-07 21:17 | 50.21848 | 18.63031 | 34230 ft | 425 kts | 138° |
| 2026-05-07 21:18 | 50.19812 | 18.66378 | 34370 ft | 425 kts | 139° |
| 2026-05-07 21:18 | 50.17778 | 18.69715 | 34597 ft | 424 kts | 139° |
| 2026-05-07 21:18 | 50.15745 | 18.73041 | 34773 ft | 424 kts | 139° |
| 2026-05-07 21:18 | 50.13702 | 18.76375 | 34952 ft | 425 kts | 139° |
| 2026-05-07 21:19 | 50.09591 | 18.83071 | 35028 ft | 429 kts | 139° |
| 2026-05-07 21:19 | 50.05463 | 18.89781 | 35039 ft | 429 kts | 139° |
| 2026-05-07 21:20 | 50.01186 | 18.96191 | 35034 ft | 425 kts | 145° |
| 2026-05-07 21:20 | 49.96612 | 19.02050 | 35018 ft | 426 kts | 146° |
| 2026-05-07 21:21 | 49.92040 | 19.07900 | 35033 ft | 425 kts | 146° |
| 2026-05-07 21:21 | 49.87467 | 19.13729 | 35032 ft | 425 kts | 146° |
| 2026-05-07 21:22 | 49.82886 | 19.19537 | 35031 ft | 425 kts | 146° |
| 2026-05-07 21:22 | 49.78331 | 19.25306 | 35038 ft | 426 kts | 146° |
| 2026-05-07 21:23 | 49.73746 | 19.31102 | 34997 ft | 426 kts | 147° |
| 2026-05-07 21:23 | 49.69159 | 19.36902 | 35006 ft | 426 kts | 147° |
| 2026-05-07 21:24 | 49.64562 | 19.42677 | 35011 ft | 426 kts | 147° |
| 2026-05-07 21:24 | 49.59770 | 19.47941 | 35016 ft | 417 kts | 159° |
| 2026-05-07 21:25 | 49.54528 | 19.51716 | 35019 ft | 416 kts | 160° |
| 2026-05-07 21:25 | 49.49308 | 19.55473 | 35021 ft | 416 kts | 160° |
| 2026-05-07 21:26 | 49.44058 | 19.59248 | 34989 ft | 417 kts | 160° |
| 2026-05-07 21:26 | 49.38787 | 19.63011 | 35002 ft | 418 kts | 160° |
| 2026-05-07 21:27 | 49.33501 | 19.66773 | 35018 ft | 419 kts | 160° |
| 2026-05-07 21:27 | 49.28218 | 19.70528 | 35028 ft | 419 kts | 160° |
| 2026-05-07 21:28 | 49.22922 | 19.74290 | 35026 ft | 419 kts | 160° |
| 2026-05-07 21:28 | 49.17627 | 19.78044 | 35032 ft | 419 kts | 160° |
| 2026-05-07 21:29 | 49.12329 | 19.81794 | 34993 ft | 420 kts | 161° |
| 2026-05-07 21:29 | 49.07061 | 19.85506 | 35001 ft | 421 kts | 161° |
| 2026-05-07 21:30 | 49.01729 | 19.89248 | 35010 ft | 422 kts | 161° |
| 2026-05-07 21:30 | 48.96398 | 19.92987 | 35010 ft | 422 kts | 161° |
| 2026-05-07 21:31 | 48.91055 | 19.96733 | 35022 ft | 423 kts | 161° |
| 2026-05-07 21:31 | 48.85707 | 20.00471 | 35013 ft | 424 kts | 161° |
| 2026-05-07 21:32 | 48.80348 | 20.04202 | 35012 ft | 424 kts | 161° |
| 2026-05-07 21:32 | 48.74949 | 20.07945 | 35023 ft | 427 kts | 161° |
| 2026-05-07 21:33 | 48.69538 | 20.11696 | 35025 ft | 428 kts | 161° |
| 2026-05-07 21:33 | 48.64125 | 20.15446 | 35030 ft | 428 kts | 161° |
| 2026-05-07 21:34 | 48.58744 | 20.19156 | 35024 ft | 428 kts | 161° |
| 2026-05-07 21:34 | 48.53316 | 20.22894 | 35025 ft | 429 kts | 161° |
| 2026-05-07 21:35 | 48.47877 | 20.26626 | 34990 ft | 430 kts | 161° |
| 2026-05-07 21:35 | 48.42434 | 20.30359 | 35030 ft | 431 kts | 161° |
| 2026-05-07 21:36 | 48.36974 | 20.34090 | 35036 ft | 431 kts | 161° |
| 2026-05-07 21:36 | 48.31511 | 20.37813 | 35039 ft | 432 kts | 161° |
| 2026-05-07 21:37 | 48.26060 | 20.41650 | 35041 ft | 433 kts | 160° |
| 2026-05-07 21:37 | 48.20634 | 20.45546 | 35046 ft | 433 kts | 160° |
| 2026-05-07 21:38 | 48.15199 | 20.49415 | 35009 ft | 432 kts | 160° |
| 2026-05-07 21:38 | 48.09784 | 20.53240 | 35014 ft | 433 kts | 160° |
| 2026-05-07 21:39 | 48.04291 | 20.57096 | 35022 ft | 434 kts | 160° |
| 2026-05-07 21:39 | 47.98852 | 20.60900 | 35027 ft | 435 kts | 160° |
| 2026-05-07 21:40 | 47.93366 | 20.64733 | 35034 ft | 435 kts | 160° |
| 2026-05-07 21:40 | 47.87886 | 20.68573 | 35043 ft | 435 kts | 160° |
| 2026-05-07 21:41 | 47.82398 | 20.72404 | 35021 ft | 436 kts | 160° |
| 2026-05-07 21:41 | 47.76902 | 20.76231 | 35022 ft | 437 kts | 160° |
| 2026-05-07 21:42 | 47.71392 | 20.80051 | 35031 ft | 437 kts | 160° |
| 2026-05-07 21:42 | 47.65872 | 20.83869 | 35036 ft | 438 kts | 160° |
| 2026-05-07 21:43 | 47.60358 | 20.87673 | 35036 ft | 438 kts | 160° |
| 2026-05-07 21:43 | 47.54834 | 20.91477 | 35041 ft | 438 kts | 160° |
| 2026-05-07 21:44 | 47.50240 | 20.94632 | 35043 ft | 438 kts | 160° |
| 2026-05-07 21:44 | 47.44725 | 20.98429 | 35042 ft | 438 kts | 160° |
| 2026-05-07 21:45 | 47.39206 | 21.02213 | 35043 ft | 437 kts | 160° |
| 2026-05-07 21:45 | 47.33679 | 21.05981 | 35032 ft | 437 kts | 160° |
| 2026-05-07 21:46 | 47.27261 | 21.10357 | 35036 ft | 438 kts | 160° |
| 2026-05-07 21:46 | 47.22626 | 21.13489 | 35018 ft | 438 kts | 160° |
| 2026-05-07 21:47 | 47.17084 | 21.17240 | 35030 ft | 438 kts | 160° |
| 2026-05-07 21:47 | 47.11547 | 21.20995 | 35031 ft | 438 kts | 160° |
| 2026-05-07 21:48 | 47.06014 | 21.24737 | 35029 ft | 439 kts | 160° |
| 2026-05-07 21:48 | 47.00497 | 21.28453 | 35034 ft | 439 kts | 160° |
| 2026-05-07 21:49 | 46.94951 | 21.32171 | 35037 ft | 439 kts | 160° |
| 2026-05-07 21:49 | 46.89397 | 21.35890 | 35018 ft | 439 kts | 160° |
| 2026-05-07 21:50 | 46.83835 | 21.39609 | 35023 ft | 440 kts | 160° |
| 2026-05-07 21:50 | 46.78261 | 21.43323 | 35030 ft | 440 kts | 160° |
| 2026-05-07 21:51 | 46.72694 | 21.47034 | 35035 ft | 440 kts | 160° |
| 2026-05-07 21:51 | 46.67185 | 21.50979 | 35034 ft | 444 kts | 154° |
| 2026-05-07 21:52 | 46.61840 | 21.55512 | 35011 ft | 445 kts | 154° |
| 2026-05-07 21:52 | 46.56492 | 21.60020 | 35016 ft | 445 kts | 154° |
| 2026-05-07 21:53 | 46.51118 | 21.64541 | 35028 ft | 446 kts | 154° |
| 2026-05-07 21:53 | 46.45746 | 21.69047 | 35033 ft | 446 kts | 154° |
| 2026-05-07 21:54 | 46.40371 | 21.73557 | 35035 ft | 446 kts | 154° |
| 2026-05-07 21:54 | 46.34991 | 21.78041 | 35020 ft | 446 kts | 154° |
| 2026-05-07 21:55 | 46.29647 | 21.82497 | 35033 ft | 446 kts | 154° |
| 2026-05-07 21:55 | 46.24263 | 21.86990 | 35036 ft | 447 kts | 154° |
| 2026-05-07 21:56 | 46.18870 | 21.91471 | 35040 ft | 447 kts | 154° |
| 2026-05-07 21:56 | 46.13472 | 21.95929 | 35046 ft | 448 kts | 154° |
| 2026-05-07 21:57 | 46.08063 | 22.00402 | 35039 ft | 448 kts | 154° |
| 2026-05-07 21:57 | 46.02665 | 22.04859 | 35034 ft | 448 kts | 154° |
| 2026-05-07 21:58 | 45.97247 | 22.09309 | 35046 ft | 448 kts | 154° |
| 2026-05-07 21:58 | 45.91831 | 22.13759 | 35047 ft | 449 kts | 154° |
| 2026-05-07 21:59 | 45.86402 | 22.18202 | 35055 ft | 449 kts | 154° |
| 2026-05-07 21:59 | 45.81012 | 22.22611 | 35047 ft | 449 kts | 154° |
| 2026-05-07 22:00 | 45.75580 | 22.27040 | 35052 ft | 450 kts | 155° |
| 2026-05-07 22:00 | 45.70128 | 22.31466 | 35058 ft | 451 kts | 155° |
| 2026-05-07 22:01 | 45.64667 | 22.35905 | 35066 ft | 451 kts | 155° |
| 2026-05-07 22:01 | 45.59207 | 22.40329 | 35068 ft | 451 kts | 155° |
| 2026-05-07 22:02 | 45.53742 | 22.44733 | 35057 ft | 452 kts | 155° |
| 2026-05-07 22:02 | 45.48264 | 22.49146 | 35075 ft | 452 kts | 155° |
| 2026-05-07 22:03 | 45.42784 | 22.53561 | 35083 ft | 452 kts | 155° |
| 2026-05-07 22:03 | 45.37303 | 22.57968 | 35087 ft | 452 kts | 155° |
| 2026-05-07 22:04 | 45.31850 | 22.62331 | 35065 ft | 452 kts | 154° |
| 2026-05-07 22:04 | 45.26362 | 22.66716 | 35072 ft | 453 kts | 154° |
| 2026-05-07 22:05 | 45.20859 | 22.71095 | 35080 ft | 454 kts | 155° |
| 2026-05-07 22:05 | 45.15345 | 22.75467 | 35082 ft | 454 kts | 155° |
| 2026-05-07 22:06 | 45.09836 | 22.79844 | 35080 ft | 454 kts | 155° |
| 2026-05-07 22:06 | 45.04316 | 22.84215 | 35072 ft | 454 kts | 154° |
| 2026-05-07 22:07 | 44.98799 | 22.88572 | 35071 ft | 454 kts | 155° |
| 2026-05-07 22:07 | 44.93280 | 22.92921 | 35068 ft | 455 kts | 155° |
| 2026-05-07 22:08 | 44.87746 | 22.97278 | 35070 ft | 455 kts | 155° |
| 2026-05-07 22:08 | 44.82216 | 23.01621 | 35067 ft | 455 kts | 155° |
| 2026-05-07 22:09 | 44.76680 | 23.05946 | 35050 ft | 456 kts | 155° |
| 2026-05-07 22:09 | 44.71153 | 23.10263 | 35050 ft | 457 kts | 155° |
| 2026-05-07 22:10 | 44.65590 | 23.14605 | 35054 ft | 458 kts | 155° |
| 2026-05-07 22:10 | 44.60007 | 23.18949 | 35055 ft | 459 kts | 155° |
| 2026-05-07 22:11 | 44.54422 | 23.23287 | 35037 ft | 459 kts | 155° |
| 2026-05-07 22:11 | 44.48829 | 23.27623 | 35042 ft | 460 kts | 155° |
| 2026-05-07 22:12 | 44.43214 | 23.31956 | 35047 ft | 461 kts | 155° |
| 2026-05-07 22:12 | 44.37592 | 23.36288 | 35051 ft | 461 kts | 155° |
| 2026-05-07 22:13 | 44.31967 | 23.40611 | 35054 ft | 461 kts | 157° |
| 2026-05-07 22:13 | 44.25991 | 23.43482 | 35065 ft | 451 kts | 173° |
| 2026-05-07 22:14 | 44.19828 | 23.45107 | 35074 ft | 450 kts | 173° |
| 2026-05-07 22:14 | 44.13678 | 23.46728 | 35071 ft | 450 kts | 173° |
| 2026-05-07 22:15 | 44.07518 | 23.48347 | 35053 ft | 451 kts | 173° |
| 2026-05-07 22:15 | 44.01383 | 23.49962 | 35048 ft | 452 kts | 173° |
| 2026-05-07 22:16 | 43.95198 | 23.51584 | 35048 ft | 453 kts | 173° |
| 2026-05-07 22:16 | 43.89005 | 23.53205 | 35053 ft | 453 kts | 173° |
| 2026-05-07 22:17 | 43.82804 | 23.54821 | 35040 ft | 454 kts | 173° |
| 2026-05-07 22:17 | 43.76590 | 23.56447 | 35043 ft | 454 kts | 173° |
| 2026-05-07 22:18 | 43.67267 | 23.58878 | 35050 ft | 455 kts | 173° |
| 2026-05-07 22:19 | 43.61037 | 23.60492 | 35047 ft | 456 kts | 174° |
| 2026-05-07 22:19 | 43.54790 | 23.62100 | 35053 ft | 457 kts | 174° |
| 2026-05-07 22:20 | 43.48529 | 23.63709 | 35058 ft | 457 kts | 173° |
| 2026-05-07 22:20 | 43.42313 | 23.65321 | 35048 ft | 458 kts | 173° |
| 2026-05-07 22:21 | 43.36053 | 23.66931 | 35057 ft | 458 kts | 174° |
| 2026-05-07 22:21 | 43.29763 | 23.68544 | 35064 ft | 459 kts | 174° |
| 2026-05-07 22:22 | 43.23471 | 23.70159 | 35056 ft | 460 kts | 174° |
| 2026-05-07 22:22 | 43.17165 | 23.71772 | 35062 ft | 461 kts | 174° |
| 2026-05-07 22:23 | 43.10898 | 23.73358 | 35072 ft | 462 kts | 174° |
| 2026-05-07 22:23 | 43.04560 | 23.74965 | 35084 ft | 462 kts | 174° |
| 2026-05-07 22:24 | 42.98230 | 23.76574 | 35085 ft | 464 kts | 174° |
| 2026-05-07 22:24 | 42.91873 | 23.78188 | 35098 ft | 464 kts | 174° |
| 2026-05-07 22:25 | 42.85516 | 23.79807 | 35108 ft | 465 kts | 174° |
| 2026-05-07 22:25 | 42.79189 | 23.81411 | 35086 ft | 466 kts | 175° |
| 2026-05-07 22:26 | 42.72802 | 23.83012 | 35100 ft | 467 kts | 175° |
| 2026-05-07 22:26 | 42.66394 | 23.84617 | 35108 ft | 468 kts | 175° |
| 2026-05-07 22:27 | 42.59979 | 23.86229 | 35098 ft | 470 kts | 176° |
| 2026-05-07 22:27 | 42.53548 | 23.87832 | 35101 ft | 470 kts | 175° |
| 2026-05-07 22:28 | 42.47103 | 23.89437 | 35109 ft | 471 kts | 175° |
| 2026-05-07 22:28 | 42.40653 | 23.91051 | 35089 ft | 472 kts | 177° |
| 2026-05-07 22:29 | 42.34173 | 23.92666 | 35093 ft | 475 kts | 177° |
| 2026-05-07 22:29 | 42.27667 | 23.94282 | 35096 ft | 476 kts | 177° |
| 2026-05-07 22:30 | 42.21133 | 23.95893 | 35110 ft | 478 kts | 177° |
| 2026-05-07 22:30 | 42.14593 | 23.97499 | 35117 ft | 479 kts | 177° |
| 2026-05-07 22:31 | 42.08033 | 23.99113 | 35125 ft | 479 kts | 177° |
| 2026-05-07 22:31 | 42.01481 | 24.00734 | 35111 ft | 479 kts | 177° |
| 2026-05-07 22:32 | 41.94969 | 24.02336 | 35118 ft | 479 kts | 177° |
| 2026-05-07 22:32 | 41.88407 | 24.03944 | 35126 ft | 479 kts | 177° |
| 2026-05-07 22:33 | 41.81851 | 24.05553 | 35115 ft | 479 kts | 178° |
| 2026-05-07 22:33 | 41.75283 | 24.07158 | 35125 ft | 479 kts | 178° |
| 2026-05-07 22:34 | 41.68710 | 24.08752 | 35126 ft | 480 kts | 178° |
| 2026-05-07 22:34 | 41.62132 | 24.10348 | 35128 ft | 481 kts | 178° |
| 2026-05-07 22:35 | 41.55541 | 24.12031 | 35127 ft | 487 kts | 173° |
| 2026-05-07 22:35 | 41.49105 | 24.15312 | 35129 ft | 499 kts | 164° |
| 2026-05-07 22:36 | 41.43800 | 24.18351 | 35134 ft | 499 kts | 164° |
| 2026-05-07 22:36 | 41.36357 | 24.22577 | 35119 ft | 500 kts | 165° |
| 2026-05-07 22:37 | 41.29949 | 24.26199 | 35116 ft | 501 kts | 165° |
| 2026-05-07 22:37 | 41.24570 | 24.29245 | 35116 ft | 502 kts | 165° |
| 2026-05-07 22:38 | 41.18135 | 24.32890 | 35122 ft | 502 kts | 165° |
| 2026-05-07 22:38 | 41.11734 | 24.36494 | 35111 ft | 503 kts | 165° |
| 2026-05-07 22:39 | 41.05286 | 24.40110 | 35099 ft | 504 kts | 165° |
| 2026-05-07 22:39 | 40.98813 | 24.43737 | 35095 ft | 505 kts | 165° |
| 2026-05-07 22:40 | 40.92332 | 24.47366 | 35080 ft | 506 kts | 165° |
| 2026-05-07 22:40 | 40.85841 | 24.51001 | 35093 ft | 507 kts | 165° |
| 2026-05-07 22:41 | 40.79342 | 24.54621 | 35102 ft | 507 kts | 165° |
| 2026-05-07 22:41 | 40.72870 | 24.58211 | 35119 ft | 508 kts | 165° |
| 2026-05-07 22:42 | 40.66363 | 24.61820 | 35106 ft | 507 kts | 165° |
| 2026-05-07 22:42 | 40.59857 | 24.65422 | 35116 ft | 508 kts | 165° |
| 2026-05-07 22:43 | 40.53341 | 24.69035 | 35118 ft | 508 kts | 165° |
| 2026-05-07 22:43 | 40.46825 | 24.72633 | 35097 ft | 508 kts | 165° |
| 2026-05-07 22:44 | 40.40299 | 24.76216 | 35106 ft | 508 kts | 165° |
| 2026-05-07 22:44 | 40.33776 | 24.79787 | 35109 ft | 509 kts | 165° |
| 2026-05-07 22:45 | 40.27246 | 24.83377 | 35106 ft | 509 kts | 165° |
| 2026-05-07 22:45 | 40.20711 | 24.86953 | 35098 ft | 509 kts | 165° |
| 2026-05-07 22:46 | 40.14211 | 24.90498 | 35108 ft | 510 kts | 165° |
| 2026-05-07 22:46 | 40.07654 | 24.94069 | 35113 ft | 510 kts | 165° |
| 2026-05-07 22:47 | 40.01101 | 24.97643 | 35114 ft | 511 kts | 165° |
| 2026-05-07 22:47 | 39.94529 | 25.01199 | 35126 ft | 511 kts | 165° |
| 2026-05-07 22:48 | 39.87958 | 25.04748 | 35110 ft | 512 kts | 165° |
| 2026-05-07 22:48 | 39.81373 | 25.08308 | 35108 ft | 513 kts | 165° |
| 2026-05-07 22:49 | 39.74776 | 25.11863 | 35087 ft | 513 kts | 165° |
| 2026-05-07 22:49 | 39.68175 | 25.15408 | 35101 ft | 513 kts | 165° |
| 2026-05-07 22:50 | 39.61569 | 25.18955 | 35114 ft | 514 kts | 165° |
| 2026-05-07 22:50 | 39.54968 | 25.22498 | 35111 ft | 514 kts | 165° |
| 2026-05-07 22:51 | 39.48361 | 25.26031 | 35132 ft | 514 kts | 165° |
| 2026-05-07 22:51 | 39.41785 | 25.29537 | 35129 ft | 514 kts | 165° |
| 2026-05-07 22:52 | 39.35168 | 25.33054 | 35141 ft | 514 kts | 165° |
| 2026-05-07 22:52 | 39.28524 | 25.36583 | 35125 ft | 516 kts | 165° |
| 2026-05-07 22:53 | 39.21890 | 25.40105 | 35117 ft | 516 kts | 165° |
| 2026-05-07 22:53 | 39.15236 | 25.43624 | 35132 ft | 517 kts | 165° |
| 2026-05-07 22:54 | 39.08586 | 25.47126 | 35109 ft | 517 kts | 165° |
| 2026-05-07 22:54 | 39.01933 | 25.50633 | 35130 ft | 516 kts | 165° |
| 2026-05-07 22:55 | 38.95296 | 25.54128 | 35137 ft | 516 kts | 165° |
| 2026-05-07 22:55 | 38.88656 | 25.57620 | 35139 ft | 515 kts | 165° |
| 2026-05-07 22:56 | 38.82016 | 25.61098 | 35136 ft | 515 kts | 165° |
| 2026-05-07 22:56 | 38.75418 | 25.64539 | 35141 ft | 516 kts | 164° |
| 2026-05-07 22:57 | 38.68759 | 25.68000 | 35134 ft | 516 kts | 164° |
| 2026-05-07 22:57 | 38.62106 | 25.71473 | 35133 ft | 517 kts | 164° |
| 2026-05-07 22:58 | 38.55444 | 25.74939 | 35122 ft | 517 kts | 164° |
| 2026-05-07 22:58 | 38.48777 | 25.78389 | 35131 ft | 517 kts | 164° |
| 2026-05-07 22:59 | 38.42098 | 25.81853 | 35135 ft | 518 kts | 164° |
| 2026-05-07 22:59 | 38.35427 | 25.85301 | 35124 ft | 518 kts | 164° |
| 2026-05-07 23:00 | 38.28747 | 25.88745 | 35130 ft | 518 kts | 164° |
| 2026-05-07 23:00 | 38.22040 | 25.92129 | 35141 ft | 518 kts | 166° |
| 2026-05-07 23:01 | 38.15275 | 25.95223 | 35158 ft | 516 kts | 167° |
| 2026-05-07 23:01 | 38.08506 | 25.98182 | 35133 ft | 517 kts | 167° |
| 2026-05-07 23:02 | 38.01690 | 26.01233 | 35131 ft | 518 kts | 166° |
| 2026-05-07 23:02 | 37.94907 | 26.04338 | 35134 ft | 519 kts | 166° |
| 2026-05-07 23:03 | 37.88149 | 26.07428 | 35124 ft | 519 kts | 166° |
| 2026-05-07 23:03 | 37.81340 | 26.10513 | 35140 ft | 520 kts | 166° |
| 2026-05-07 23:04 | 37.74526 | 26.13579 | 35139 ft | 521 kts | 166° |
| 2026-05-07 23:04 | 37.67680 | 26.16651 | 35147 ft | 521 kts | 166° |
| 2026-05-07 23:05 | 37.60843 | 26.19714 | 35162 ft | 522 kts | 166° |
| 2026-05-07 23:05 | 37.54007 | 26.22773 | 35161 ft | 521 kts | 166° |
| 2026-05-07 23:06 | 37.47181 | 26.25833 | 35158 ft | 521 kts | 166° |
| 2026-05-07 23:06 | 37.40349 | 26.28889 | 35142 ft | 521 kts | 166° |
| 2026-05-07 23:07 | 37.33510 | 26.31937 | 35147 ft | 522 kts | 166° |
| 2026-05-07 23:07 | 37.26662 | 26.34986 | 35146 ft | 522 kts | 166° |
| 2026-05-07 23:08 | 37.19861 | 26.38004 | 35143 ft | 522 kts | 166° |
| 2026-05-07 23:08 | 37.13015 | 26.41041 | 35129 ft | 522 kts | 166° |
| 2026-05-07 23:09 | 37.06155 | 26.44086 | 35139 ft | 523 kts | 166° |
| 2026-05-07 23:09 | 36.99303 | 26.47118 | 35146 ft | 523 kts | 166° |
| 2026-05-07 23:10 | 36.92754 | 26.51193 | 35135 ft | 532 kts | 146° |
| 2026-05-07 23:10 | 36.89922 | 26.54172 | 35137 ft | 534 kts | 135° |
| 2026-05-07 23:10 | 36.87502 | 26.57696 | 35141 ft | 534 kts | 124° |
| 2026-05-07 23:10 | 36.85568 | 26.61633 | 35140 ft | 531 kts | 113° |
| 2026-05-07 23:11 | 36.84072 | 26.65834 | 35141 ft | 529 kts | 109° |
| 2026-05-07 23:11 | 36.81168 | 26.74281 | 35141 ft | 530 kts | 110° |
| 2026-05-07 23:12 | 36.78261 | 26.82670 | 35011 ft | 532 kts | 110° |
| 2026-05-07 23:12 | 36.76796 | 26.86899 | 34782 ft | 532 kts | 110° |
| 2026-05-07 23:12 | 36.75328 | 26.91142 | 34551 ft | 533 kts | 110° |
| 2026-05-07 23:12 | 36.73856 | 26.95384 | 34317 ft | 534 kts | 110° |
| 2026-05-07 23:13 | 36.72381 | 26.99631 | 34073 ft | 535 kts | 110° |
| 2026-05-07 23:13 | 36.70903 | 27.03896 | 33802 ft | 535 kts | 110° |
| 2026-05-07 23:13 | 36.69424 | 27.08155 | 33534 ft | 535 kts | 110° |
| 2026-05-07 23:13 | 36.67948 | 27.12400 | 33274 ft | 535 kts | 110° |
| 2026-05-07 23:14 | 36.66467 | 27.16654 | 33021 ft | 535 kts | 110° |
| 2026-05-07 23:14 | 36.64985 | 27.20899 | 32770 ft | 535 kts | 110° |
| 2026-05-07 23:14 | 36.63498 | 27.25144 | 32512 ft | 534 kts | 110° |
| 2026-05-07 23:14 | 36.62008 | 27.29384 | 32259 ft | 534 kts | 110° |
| 2026-05-07 23:15 | 36.60518 | 27.33613 | 32004 ft | 533 kts | 110° |
| 2026-05-07 23:15 | 36.59029 | 27.37836 | 31754 ft | 533 kts | 110° |
| 2026-05-07 23:15 | 36.57539 | 27.42056 | 31508 ft | 532 kts | 110° |
| 2026-05-07 23:15 | 36.56056 | 27.46263 | 31267 ft | 531 kts | 110° |
| 2026-05-07 23:16 | 36.54572 | 27.50470 | 31025 ft | 530 kts | 110° |
| 2026-05-07 23:16 | 36.53092 | 27.54663 | 30783 ft | 529 kts | 110° |
| 2026-05-07 23:16 | 36.51611 | 27.58847 | 30547 ft | 529 kts | 110° |
| 2026-05-07 23:16 | 36.50130 | 27.63018 | 30303 ft | 528 kts | 110° |
| 2026-05-07 23:17 | 36.48649 | 27.67190 | 29195 ft | 530 kts | 111° |
| 2026-05-07 23:17 | 36.47048 | 27.71338 | 28138 ft | 532 kts | 118° |
| 2026-05-07 23:17 | 36.45071 | 27.75162 | 27443 ft | 523 kts | 125° |
| 2026-05-07 23:17 | 36.42776 | 27.78702 | 26281 ft | 526 kts | 130° |
| 2026-05-07 23:18 | 36.40434 | 27.82156 | 25529 ft | 519 kts | 130° |
| 2026-05-07 23:18 | 36.38130 | 27.85542 | 24657 ft | 505 kts | 130° |
| 2026-05-07 23:18 | 36.35887 | 27.88832 | 23473 ft | 494 kts | 130° |
| 2026-05-07 23:18 | 36.33724 | 27.92008 | 22323 ft | 482 kts | 130° |
| 2026-05-07 23:19 | 36.31598 | 27.95133 | 21472 ft | 466 kts | 130° |
| 2026-05-07 23:19 | 36.29543 | 27.98153 | 20669 ft | 451 kts | 130° |
| 2026-05-07 23:19 | 36.27556 | 28.01067 | 19909 ft | 438 kts | 130° |
| 2026-05-07 23:19 | 36.25586 | 28.03954 | 19176 ft | 426 kts | 130° |
| 2026-05-07 23:20 | 36.23699 | 28.06720 | 18491 ft | 414 kts | 130° |
| 2026-05-07 23:20 | 36.22077 | 28.09587 | 17757 ft | 402 kts | 116° |
| 2026-05-07 23:20 | 36.21133 | 28.12776 | 17097 ft | 389 kts | 99° |
| 2026-05-07 23:20 | 36.20899 | 28.16060 | 16439 ft | 381 kts | 84° |
| 2026-05-07 23:21 | 36.21357 | 28.19287 | 15760 ft | 380 kts | 69° |
| 2026-05-07 23:21 | 36.22467 | 28.22240 | 15041 ft | 379 kts | 53° |
| 2026-05-07 23:21 | 36.24115 | 28.24808 | 14134 ft | 384 kts | 43° |
| 2026-05-07 23:21 | 36.26048 | 28.27060 | 13312 ft | 386 kts | 35° |
| 2026-05-07 23:22 | 36.28357 | 28.28506 | 13149 ft | 363 kts | 10° |
| 2026-05-07 23:22 | 36.30764 | 28.28558 | 13014 ft | 333 kts | 344° |
| 2026-05-07 23:22 | 36.32706 | 28.27322 | 12867 ft | 304 kts | 316° |
| 2026-05-07 23:22 | 36.33773 | 28.25204 | 12746 ft | 283 kts | 288° |
| 2026-05-07 23:23 | 36.34064 | 28.22856 | 12428 ft | 273 kts | 274° |
| 2026-05-07 23:23 | 36.34042 | 28.20517 | 11902 ft | 270 kts | 270° |
| 2026-05-07 23:23 | 36.33947 | 28.18196 | 11343 ft | 268 kts | 270° |
| 2026-05-07 23:23 | 36.33882 | 28.15895 | 10785 ft | 266 kts | 271° |
| 2026-05-07 23:24 | 36.33870 | 28.13600 | 10232 ft | 264 kts | 273° |
| 2026-05-07 23:24 | 36.33984 | 28.11345 | 9620 ft | 260 kts | 288° |
| 2026-05-07 23:24 | 36.34853 | 28.09457 | 9018 ft | 253 kts | 319° |
| 2026-05-07 23:24 | 36.36389 | 28.08470 | 8374 ft | 252 kts | 351° |
| 2026-05-07 23:25 | 36.38121 | 28.08688 | 7830 ft | 256 kts | 23° |
| 2026-05-07 23:25 | 36.39508 | 28.10044 | 7412 ft | 258 kts | 56° |
| 2026-05-07 23:25 | 36.40087 | 28.12131 | 7029 ft | 260 kts | 89° |
| 2026-05-07 23:25 | 36.39671 | 28.14288 | 6648 ft | 260 kts | 115° |
| 2026-05-07 23:26 | 36.38843 | 28.16286 | 6249 ft | 260 kts | 117° |
| 2026-05-07 23:26 | 36.38225 | 28.18371 | 5855 ft | 257 kts | 99° |
| 2026-05-07 23:26 | 36.38217 | 28.20566 | 5507 ft | 253 kts | 79° |
| 2026-05-07 23:26 | 36.38761 | 28.22609 | 5213 ft | 248 kts | 66° |
| 2026-05-07 23:27 | 36.40075 | 28.26537 | 4609 ft | 246 kts | 66° |
| 2026-05-07 23:27 | 36.40503 | 28.27820 | 4525 ft | 238 kts | 65° |
| 2026-05-07 23:27 | 36.41148 | 28.29665 | 4447 ft | 227 kts | 64° |
| 2026-05-07 23:28 | 36.41778 | 28.31405 | 4353 ft | 215 kts | 64° |
| 2026-05-07 23:28 | 36.42567 | 28.33568 | 4271 ft | 199 kts | 64° |
| 2026-05-07 23:28 | 36.43115 | 28.35078 | 4156 ft | 186 kts | 64° |
| 2026-05-07 23:28 | 36.43626 | 28.36492 | 4069 ft | 173 kts | 63° |
| 2026-05-07 23:29 | 36.44040 | 28.37320 | 4008 ft | 162 kts | 42° |
| 2026-05-07 23:29 | 36.44968 | 28.37943 | 3862 ft | 150 kts | 7° |
| 2026-05-07 23:29 | 36.46004 | 28.37778 | 3767 ft | 163 kts | 334° |
| 2026-05-07 23:29 | 36.46817 | 28.36748 | 3598 ft | 174 kts | 293° |
| 2026-05-07 23:30 | 36.46952 | 28.35250 | 3454 ft | 178 kts | 270° |
| 2026-05-07 23:30 | 36.47010 | 28.33725 | 3304 ft | 177 kts | 276° |
| 2026-05-07 23:30 | 36.47099 | 28.32199 | 3142 ft | 176 kts | 276° |
| 2026-05-07 23:30 | 36.47001 | 28.30682 | 2999 ft | 178 kts | 256° |
| 2026-05-07 23:31 | 36.46579 | 28.29236 | 2849 ft | 178 kts | 252° |
| 2026-05-07 23:31 | 36.46170 | 28.27823 | 2690 ft | 167 kts | 253° |
| 2026-05-07 23:31 | 36.45799 | 28.26535 | 2573 ft | 153 kts | 254° |
| 2026-05-07 23:31 | 36.45452 | 28.25318 | 2431 ft | 147 kts | 253° |
| 2026-05-07 23:32 | 36.45109 | 28.24135 | 2234 ft | 144 kts | 253° |
| 2026-05-07 23:32 | 36.44768 | 28.22965 | 2048 ft | 143 kts | 253° |
| 2026-05-07 23:32 | 36.44430 | 28.21808 | 1863 ft | 142 kts | 253° |
| 2026-05-07 23:32 | 36.44092 | 28.20655 | 1684 ft | 141 kts | 252° |
| 2026-05-07 23:33 | 36.43754 | 28.19511 | 1500 ft | 141 kts | 252° |
| 2026-05-07 23:33 | 36.43423 | 28.18388 | 1326 ft | 139 kts | 251° |
| 2026-05-07 23:33 | 36.43091 | 28.17258 | 1150 ft | 140 kts | 251° |
| 2026-05-07 23:33 | 36.42756 | 28.16117 | 976 ft | 138 kts | 251° |
| 2026-05-07 23:34 | 36.42426 | 28.15009 | 817 ft | 139 kts | 250° |
| 2026-05-07 23:34 | 36.42076 | 28.13891 | 637 ft | 138 kts | 250° |
| 2026-05-07 23:34 | 36.41754 | 28.12763 | 451 ft | 140 kts | 251° |
| 2026-05-07 23:34 | 36.41421 | 28.11631 | 309 ft | 140 kts | 249° |
| 2026-05-07 23:35 | 36.41079 | 28.10490 | 109 ft | 141 kts | 250° |
| 2026-05-07 23:35 | 36.40756 | 28.09384 | 28 ft | 124 kts | 250° |
| 2026-05-07 23:35 | 36.40523 | 28.08572 | 25 ft | 75 kts | 250° |
| 2026-05-07 23:35 | 36.40390 | 28.08125 | 24 ft | 38 kts | 249° |
| 2026-05-07 23:36 | 36.40294 | 28.07968 | 23 ft | 17 kts | 217° |
| 2026-05-07 23:36 | 36.40242 | 28.07917 | 24 ft | 0 kts | 220° |
| 2026-05-07 23:38 | 36.40235 | 28.07909 | 23 ft | 7 kts | 220° |
| 2026-05-07 23:38 | 36.40195 | 28.07868 | 23 ft | 10 kts | 220° |
| 2026-05-07 23:39 | 36.40155 | 28.07826 | 24 ft | 0 kts | 219° |
| 2026-05-07 23:39 | 36.40131 | 28.07842 | 24 ft | 7 kts | 109° |
| 2026-05-07 23:39 | 36.40149 | 28.07924 | 23 ft | 12 kts | 70° |
| 2026-05-07 23:39 | 36.40190 | 28.08060 | 23 ft | 20 kts | 69° |
| 2026-05-07 23:40 | 36.40238 | 28.08226 | 24 ft | 21 kts | 71° |
| 2026-05-07 23:40 | 36.40282 | 28.08376 | 26 ft | 18 kts | 70° |
| 2026-05-07 23:40 | 36.40324 | 28.08517 | 23 ft | 15 kts | 70° |
| 2026-05-07 23:40 | 36.40363 | 28.08652 | 23 ft | 18 kts | 70° |
| 2026-05-07 23:41 | 36.40400 | 28.08804 | 23 ft | 19 kts | 83° |
| 2026-05-07 23:41 | 36.40395 | 28.08903 | 25 ft | 6 kts | 122° |
| 2026-05-07 23:41 | 36.40386 | 28.08893 | 25 ft | 1 kts | 263° |
| 2026-05-07 23:41 | 36.40375 | 28.08874 | 23 ft | 2 kts | 198° |
| 2026-05-07 23:42 | 36.40360 | 28.08881 | 23 ft | 5 kts | 167° |
| 2026-05-07 23:42 | 36.40315 | 28.08885 | 25 ft | 0 kts | 143° |
| 2026-05-07 23:42 | 36.40307 | 28.08895 | 23 ft | 2 kts | 141° |
| 2026-05-07 23:42 | 36.40296 | 28.08899 | 23 ft | 1 kts | 165° |
| 2026-05-07 23:43 | 36.40290 | 28.08901 | 23 ft | 0 kts | 164° |
| 2026-05-07 23:43 | 36.40284 | 28.08903 | 23 ft | 0 kts | 163° |